createdAt,value
2024-04-18T00:00:34.957Z,325.60
2024-04-18T00:01:34.898Z,294.70
2024-04-18T00:02:34.827Z,273.00
2024-04-18T00:03:34.905Z,272.60
2024-04-18T00:04:34.957Z,274.50
2024-04-18T00:05:34.805Z,249.90
2024-04-18T00:06:34.789Z,263.10
2024-04-18T00:07:34.758Z,258.20
2024-04-18T00:08:34.745Z,255.50
2024-04-18T00:09:34.797Z,259.60
2024-04-18T00:10:34.722Z,282.70
2024-04-18T00:11:34.708Z,282.50
2024-04-18T00:12:34.736Z,251.00
2024-04-18T00:13:34.700Z,270.40
2024-04-18T00:14:34.699Z,271.20
2024-04-18T00:15:34.700Z,292.20
2024-04-18T00:16:34.650Z,311.80
2024-04-18T00:17:34.726Z,239.20
2024-04-18T00:18:34.723Z,272.80
2024-04-18T00:19:34.628Z,280.70
2024-04-18T00:20:34.620Z,270.50
2024-04-18T00:21:34.654Z,262.00
2024-04-18T00:22:34.613Z,277.30
2024-04-18T00:23:34.590Z,283.20
2024-04-18T00:24:34.574Z,333.70
2024-04-18T00:25:34.511Z,328.10
2024-04-18T00:26:34.528Z,306.60
2024-04-18T00:27:34.552Z,247.30
2024-04-18T00:28:34.491Z,272.50
2024-04-18T00:29:34.473Z,225.80
2024-04-18T00:30:34.521Z,267.70
2024-04-18T00:31:34.442Z,209.70
2024-04-18T00:32:34.504Z,198.40
2024-04-18T00:33:34.440Z,213.80
2024-04-18T00:34:34.467Z,230.90
2024-04-18T00:35:34.373Z,206.90
2024-04-18T00:36:34.461Z,247.80
2024-04-18T00:37:34.378Z,250.70
2024-04-18T00:38:34.372Z,256.10
2024-04-18T00:39:34.384Z,281.40
2024-04-18T00:40:34.329Z,290.80
2024-04-18T00:41:34.326Z,263.50
2024-04-18T00:42:34.306Z,308.20
2024-04-18T00:43:34.293Z,247.30
2024-04-18T00:44:34.277Z,186.40
2024-04-18T00:45:34.337Z,183.50
2024-04-18T00:46:34.267Z,199.20
2024-04-18T00:47:34.290Z,230.30
2024-04-18T00:48:34.271Z,212.00
2024-04-18T00:49:34.226Z,197.20
2024-04-18T00:50:34.218Z,174.80
2024-04-18T00:51:34.239Z,168.90
2024-04-18T00:52:34.170Z,167.30
2024-04-18T00:53:34.167Z,155.00
2024-04-18T00:54:34.180Z,174.70
2024-04-18T00:55:34.145Z,176.60
2024-04-18T00:56:34.131Z,187.00
2024-04-18T00:57:34.155Z,176.60
2024-04-18T00:58:34.085Z,180.20
2024-04-18T00:59:34.076Z,194.20
2024-04-18T01:00:34.180Z,198.30
2024-04-18T01:01:34.070Z,179.40
2024-04-18T01:02:34.036Z,174.00
2024-04-18T01:03:34.151Z,176.20
2024-04-18T01:04:34.150Z,180.20
2024-04-18T01:05:34.029Z,187.10
2024-04-18T01:06:34.001Z,200.60
2024-04-18T01:07:33.981Z,221.90
2024-04-18T01:08:33.964Z,180.90
2024-04-18T01:09:33.990Z,190.70
2024-04-18T01:10:33.938Z,192.40
2024-04-18T01:11:34.138Z,175.70
2024-04-18T01:12:33.936Z,194.60
2024-04-18T01:13:33.888Z,198.60
2024-04-18T01:14:33.902Z,212.40
2024-04-18T01:15:33.938Z,215.20
2024-04-18T01:16:33.850Z,194.40
2024-04-18T01:17:33.952Z,168.90
2024-04-18T01:18:33.874Z,182.50
2024-04-18T01:19:33.830Z,205.70
2024-04-18T01:20:33.808Z,216.00
2024-04-18T01:21:33.825Z,233.70
2024-04-18T01:22:33.776Z,215.00
2024-04-18T01:23:33.776Z,237.80
2024-04-18T01:24:34.085Z,228.40
2024-04-18T01:25:33.738Z,226.70
2024-04-18T01:26:33.751Z,199.20
2024-04-18T01:27:33.735Z,223.00
2024-04-18T01:28:33.719Z,251.70
2024-04-18T01:29:33.676Z,220.30
2024-04-18T01:30:33.687Z,253.60
2024-04-18T01:31:33.650Z,238.80
2024-04-18T01:32:33.720Z,211.40
2024-04-18T01:33:33.926Z,217.00
2024-04-18T01:34:33.743Z,236.20
2024-04-18T01:35:33.612Z,202.10
2024-04-18T01:36:33.631Z,229.70
2024-04-18T01:37:33.588Z,231.40
2024-04-18T01:38:33.559Z,221.60
2024-04-18T01:39:33.553Z,231.70
2024-04-18T01:40:34.883Z,252.60
2024-04-18T01:41:33.514Z,240.90
2024-04-18T01:42:33.555Z,241.80
2024-04-18T01:43:33.490Z,245.00
2024-04-18T01:44:33.480Z,231.30
2024-04-18T01:45:33.522Z,215.80
2024-04-18T01:46:33.480Z,222.60
2024-04-18T01:47:33.607Z,230.60
2024-04-18T01:48:33.563Z,223.50
2024-04-18T01:49:33.407Z,221.50
2024-04-18T01:50:33.402Z,228.80
2024-04-18T01:51:33.445Z,229.10
2024-04-18T01:52:33.375Z,224.60
2024-04-18T01:53:33.372Z,224.60
2024-04-18T01:54:33.435Z,239.10
2024-04-18T01:55:33.332Z,237.40
2024-04-18T01:56:33.352Z,229.20
2024-04-18T01:57:33.323Z,239.90
2024-04-18T01:58:33.306Z,240.40
2024-04-18T01:59:33.290Z,229.70
2024-04-18T02:00:33.413Z,262.50
2024-04-18T02:01:33.354Z,224.20
2024-04-18T02:02:33.235Z,236.30
2024-04-18T02:03:33.292Z,245.50
2024-04-18T02:04:33.265Z,261.40
2024-04-18T02:05:33.250Z,226.40
2024-04-18T02:06:33.233Z,260.00
2024-04-18T02:07:33.176Z,254.40
2024-04-18T02:08:33.170Z,262.50
2024-04-18T02:09:33.210Z,258.70
2024-04-18T02:10:33.164Z,252.30
2024-04-18T02:11:33.128Z,231.10
2024-04-18T02:12:33.199Z,220.20
2024-04-18T02:13:33.104Z,229.10
2024-04-18T02:14:33.110Z,259.60
2024-04-18T02:15:33.146Z,245.80
2024-04-18T02:16:33.082Z,225.90
2024-04-18T02:17:33.124Z,229.50
2024-04-18T02:18:33.106Z,249.80
2024-04-18T02:19:33.064Z,237.70
2024-04-18T02:20:33.025Z,245.70
2024-04-18T02:21:33.078Z,251.20
2024-04-18T02:22:32.998Z,251.30
2024-04-18T02:23:32.978Z,249.90
2024-04-18T02:24:33.002Z,206.40
2024-04-18T02:25:32.946Z,234.50
2024-04-18T02:26:32.943Z,270.40
2024-04-18T02:27:32.910Z,263.50
2024-04-18T02:28:32.931Z,236.70
2024-04-18T02:29:32.909Z,257.70
2024-04-18T02:30:33.000Z,245.50
2024-04-18T02:31:32.863Z,268.70
2024-04-18T02:32:32.912Z,232.10
2024-04-18T02:33:32.953Z,180.10
2024-04-18T02:34:32.841Z,170.40
2024-04-18T02:35:32.806Z,174.80
2024-04-18T02:36:32.835Z,181.40
2024-04-18T02:37:32.815Z,168.30
2024-04-18T02:38:32.817Z,169.40
2024-04-18T02:39:32.776Z,167.20
2024-04-18T02:40:32.754Z,175.80
2024-04-18T02:41:32.736Z,162.50
2024-04-18T02:42:32.800Z,113.00
2024-04-18T02:43:32.701Z,116.50
2024-04-18T02:44:32.700Z,135.90
2024-04-18T02:45:32.780Z,136.20
2024-04-18T02:46:32.674Z,145.30
2024-04-18T02:47:32.880Z,142.40
2024-04-18T02:48:32.677Z,127.70
2024-04-18T02:49:32.627Z,118.00
2024-04-18T02:50:32.616Z,118.40
2024-04-18T02:51:32.663Z,128.30
2024-04-18T02:52:32.613Z,130.80
2024-04-18T02:53:32.569Z,119.20
2024-04-18T02:54:32.681Z,114.00
2024-04-18T02:55:32.539Z,106.70
2024-04-18T02:56:32.560Z,118.80
2024-04-18T02:57:32.586Z,117.60
2024-04-18T02:58:32.521Z,133.90
2024-04-18T02:59:32.506Z,143.80
2024-04-18T03:00:32.651Z,136.50
2024-04-18T03:01:32.513Z,123.90
2024-04-18T03:02:32.516Z,140.30
2024-04-18T03:03:32.453Z,135.00
2024-04-18T03:04:32.498Z,124.70
2024-04-18T03:05:32.437Z,129.70
2024-04-18T03:06:32.442Z,140.10
2024-04-18T03:07:32.382Z,121.90
2024-04-18T03:08:32.394Z,131.60
2024-04-18T03:09:32.428Z,142.40
2024-04-18T03:10:32.367Z,129.90
2024-04-18T03:11:32.340Z,120.10
2024-04-18T03:12:32.362Z,144.40
2024-04-18T03:13:32.314Z,134.20
2024-04-18T03:14:32.308Z,150.60
2024-04-18T03:15:32.366Z,137.60
2024-04-18T03:16:32.303Z,142.30
2024-04-18T03:17:32.330Z,136.10
2024-04-18T03:18:32.395Z,149.20
2024-04-18T03:19:32.253Z,148.50
2024-04-18T03:20:32.249Z,146.70
2024-04-18T03:21:32.240Z,153.20
2024-04-18T03:22:32.218Z,159.20
2024-04-18T03:23:32.308Z,164.00
2024-04-18T03:24:32.368Z,147.20
2024-04-18T03:25:32.282Z,144.20
2024-04-18T03:26:32.318Z,135.20
2024-04-18T03:27:32.228Z,141.50
2024-04-18T03:28:32.113Z,144.80
2024-04-18T03:29:32.118Z,143.90
2024-04-18T03:30:32.155Z,146.70
2024-04-18T03:31:32.118Z,152.00
2024-04-18T03:32:32.146Z,131.10
2024-04-18T03:33:32.125Z,147.70
2024-04-18T03:34:32.060Z,144.40
2024-04-18T03:35:32.043Z,132.50
2024-04-18T03:36:32.028Z,134.20
2024-04-18T03:37:32.888Z,135.10
2024-04-18T03:38:32.034Z,125.00
2024-04-18T03:39:31.987Z,134.30
2024-04-18T03:40:31.981Z,145.10
2024-04-18T03:41:31.934Z,129.20
2024-04-18T03:42:31.958Z,137.40
2024-04-18T03:43:31.927Z,131.60
2024-04-18T03:44:31.961Z,138.30
2024-04-18T03:45:31.947Z,139.10
2024-04-18T03:46:31.901Z,125.60
2024-04-18T03:47:31.967Z,128.00
2024-04-18T03:48:31.986Z,129.10
2024-04-18T03:49:31.850Z,148.50
2024-04-18T03:50:31.834Z,125.00
2024-04-18T03:51:31.914Z,121.50
2024-04-18T03:52:31.830Z,119.40
2024-04-18T03:53:31.776Z,120.10
2024-04-18T03:54:39.836Z,127.00
2024-04-18T03:55:32.773Z,112.00
2024-04-18T03:56:31.750Z,130.80
2024-04-18T03:57:31.815Z,124.80
2024-04-18T03:58:31.718Z,127.70
2024-04-18T03:59:31.744Z,126.70
2024-04-18T04:00:31.742Z,122.60
2024-04-18T04:01:31.847Z,106.70
2024-04-18T04:02:31.792Z,113.20
2024-04-18T04:03:31.733Z,118.60
2024-04-18T04:04:31.644Z,125.10
2024-04-18T04:05:31.630Z,127.70
2024-04-18T04:06:33.538Z,128.60
2024-04-18T04:07:31.625Z,134.70
2024-04-18T04:08:31.593Z,134.50
2024-04-18T04:09:31.720Z,114.90
2024-04-18T04:10:31.569Z,119.30
2024-04-18T04:11:31.605Z,115.60
2024-04-18T04:12:31.555Z,122.00
2024-04-18T04:13:31.539Z,135.80
2024-04-18T04:14:31.509Z,113.70
2024-04-18T04:15:31.525Z,121.40
2024-04-18T04:16:31.497Z,117.80
2024-04-18T04:17:31.477Z,129.90
2024-04-18T04:18:31.583Z,125.50
2024-04-18T04:19:31.509Z,116.10
2024-04-18T04:20:31.450Z,134.20
2024-04-18T04:21:31.433Z,133.20
2024-04-18T04:22:33.470Z,136.40
2024-04-18T04:23:31.385Z,125.00
2024-04-18T04:24:31.446Z,110.40
2024-04-18T04:25:31.403Z,127.00
2024-04-18T04:26:31.347Z,122.20
2024-04-18T04:27:31.384Z,117.10
2024-04-18T04:28:31.342Z,137.80
2024-04-18T04:29:31.323Z,118.00
2024-04-18T04:30:31.413Z,113.50
2024-04-18T04:31:31.303Z,108.40
2024-04-18T04:32:31.328Z,121.60
2024-04-18T04:33:31.299Z,126.50
2024-04-18T04:34:31.248Z,121.50
2024-04-18T04:35:31.256Z,128.00
2024-04-18T04:36:31.232Z,122.60
2024-04-18T04:37:31.217Z,115.20
2024-04-18T04:38:31.185Z,133.30
2024-04-18T04:39:31.202Z,126.30
2024-04-18T04:40:31.169Z,127.60
2024-04-18T04:41:31.173Z,123.20
2024-04-18T04:42:31.167Z,127.60
2024-04-18T04:43:31.173Z,230.70
2024-04-18T04:44:31.119Z,287.70
2024-04-18T04:45:31.109Z,188.10
2024-04-18T04:46:31.077Z,269.50
2024-04-18T04:47:31.094Z,160.00
2024-04-18T04:48:34.003Z,241.70
2024-04-18T04:49:31.112Z,162.10
2024-04-18T04:50:31.033Z,173.50
2024-04-18T04:51:31.062Z,146.10
2024-04-18T04:52:31.006Z,157.90
2024-04-18T04:53:31.114Z,190.20
2024-04-18T04:54:30.990Z,189.30
2024-04-18T04:55:30.969Z,165.20
2024-04-18T04:56:30.948Z,178.30
2024-04-18T04:57:30.978Z,202.80
2024-04-18T04:58:30.946Z,191.50
2024-04-18T04:59:30.915Z,199.80
2024-04-18T05:00:30.927Z,189.40
2024-04-18T05:01:30.924Z,176.50
2024-04-18T05:02:30.946Z,195.60
2024-04-18T05:03:30.965Z,157.10
2024-04-18T05:04:30.838Z,181.20
2024-04-18T05:05:30.856Z,163.30
2024-04-18T05:06:30.833Z,156.50
2024-04-18T05:07:30.839Z,201.20
2024-04-18T05:08:30.793Z,175.00
2024-04-18T05:09:30.818Z,181.70
2024-04-18T05:10:30.768Z,175.00
2024-04-18T05:11:30.813Z,172.80
2024-04-18T05:12:30.775Z,185.30
2024-04-18T05:13:30.725Z,181.00
2024-04-18T05:14:30.707Z,160.00
2024-04-18T05:15:30.722Z,170.50
2024-04-18T05:16:30.771Z,142.10
2024-04-18T05:17:30.686Z,162.10
2024-04-18T05:18:30.673Z,159.50
2024-04-18T05:19:30.667Z,165.00
2024-04-18T05:20:30.647Z,155.50
2024-04-18T05:21:30.641Z,151.50
2024-04-18T05:22:30.617Z,166.90
2024-04-18T05:23:30.640Z,175.40
2024-04-18T05:24:30.663Z,166.10
2024-04-18T05:25:30.597Z,153.90
2024-04-18T05:26:30.571Z,152.30
2024-04-18T05:27:30.599Z,147.10
2024-04-18T05:28:30.543Z,147.10
2024-04-18T05:29:30.530Z,143.10
2024-04-18T05:30:30.566Z,167.00
2024-04-18T05:31:30.505Z,163.40
2024-04-18T05:32:30.569Z,139.70
2024-04-18T05:33:30.578Z,126.50
2024-04-18T05:34:30.467Z,142.30
2024-04-18T05:35:30.464Z,138.10
2024-04-18T05:36:30.457Z,142.00
2024-04-18T05:37:30.419Z,142.20
2024-04-18T05:38:30.408Z,138.20
2024-04-18T05:39:30.443Z,128.40
2024-04-18T05:40:30.443Z,126.70
2024-04-18T05:41:30.365Z,141.20
2024-04-18T05:42:30.376Z,149.40
2024-04-18T05:43:31.857Z,219.80
2024-04-18T05:44:30.329Z,134.20
2024-04-18T05:45:30.351Z,121.70
2024-04-18T05:46:30.299Z,122.90
2024-04-18T05:47:30.375Z,131.80
2024-04-18T05:48:30.296Z,119.40
2024-04-18T05:49:30.299Z,109.00
2024-04-18T05:50:30.243Z,119.70
2024-04-18T05:51:30.269Z,118.70
2024-04-18T05:52:30.228Z,111.10
2024-04-18T05:53:30.228Z,106.90
2024-04-18T05:54:30.221Z,115.00
2024-04-18T05:55:30.188Z,119.60
2024-04-18T05:56:30.174Z,104.00
2024-04-18T05:57:30.236Z,106.20
2024-04-18T05:58:30.173Z,95.50
2024-04-18T05:59:30.127Z,103.10
2024-04-18T06:00:30.136Z,108.40
2024-04-18T06:01:30.169Z,133.80
2024-04-18T06:02:30.122Z,97.60
2024-04-18T06:03:30.175Z,91.10
2024-04-18T06:04:30.099Z,97.80
2024-04-18T06:05:30.055Z,91.30
2024-04-18T06:06:30.077Z,85.80
2024-04-18T06:07:30.044Z,76.70
2024-04-18T06:08:30.034Z,80.80
2024-04-18T06:09:30.015Z,80.70
2024-04-18T06:10:29.999Z,85.90
2024-04-18T06:11:29.995Z,71.90
2024-04-18T06:12:30.069Z,78.10
2024-04-18T06:13:29.958Z,60.50
2024-04-18T06:14:29.925Z,69.80
2024-04-18T06:15:29.938Z,71.00
2024-04-18T06:16:29.984Z,72.10
2024-04-18T06:17:29.931Z,71.10
2024-04-18T06:18:29.944Z,190.90
2024-04-18T06:19:30.071Z,180.00
2024-04-18T06:20:29.862Z,92.00
2024-04-18T06:21:29.871Z,76.80
2024-04-18T06:22:29.816Z,65.00
2024-04-18T06:23:29.838Z,73.80
2024-04-18T06:24:29.816Z,70.10
2024-04-18T06:25:29.811Z,63.70
2024-04-18T06:26:29.780Z,72.20
2024-04-18T06:27:29.816Z,64.60
2024-04-18T06:28:29.743Z,68.70
2024-04-18T06:29:29.738Z,109.80
2024-04-18T06:30:29.731Z,73.20
2024-04-18T06:31:29.752Z,120.60
2024-04-18T06:32:29.812Z,55.80
2024-04-18T06:33:29.813Z,61.70
2024-04-18T06:34:29.725Z,70.80
2024-04-18T06:35:29.681Z,62.70
2024-04-18T06:36:29.703Z,55.90
2024-04-18T06:37:29.636Z,55.80
2024-04-18T06:38:29.619Z,58.20
2024-04-18T06:39:29.679Z,51.10
2024-04-18T06:40:29.639Z,57.20
2024-04-18T06:41:29.596Z,45.90
2024-04-18T06:42:29.596Z,48.30
2024-04-18T06:43:29.549Z,50.90
2024-04-18T06:44:29.545Z,53.80
2024-04-18T06:45:29.577Z,52.10
2024-04-18T06:46:29.525Z,49.50
2024-04-18T06:47:29.625Z,52.30
2024-04-18T06:48:29.581Z,51.20
2024-04-18T06:49:29.515Z,50.40
2024-04-18T06:50:29.493Z,58.00
2024-04-18T06:51:29.512Z,55.20
2024-04-18T06:52:29.426Z,49.20
2024-04-18T06:53:29.433Z,46.10
2024-04-18T06:54:29.433Z,48.20
2024-04-18T06:55:29.422Z,42.10
2024-04-18T06:56:29.397Z,50.90
2024-04-18T06:57:29.415Z,49.90
2024-04-18T06:58:29.363Z,43.20
2024-04-18T06:59:29.359Z,44.00
2024-04-18T07:00:29.345Z,46.10
2024-04-18T07:01:29.378Z,49.10
2024-04-18T07:02:29.298Z,47.50
2024-04-18T07:03:29.439Z,45.30
2024-04-18T07:04:29.443Z,47.00
2024-04-18T07:05:29.257Z,47.40
2024-04-18T07:06:29.266Z,42.10
2024-04-18T07:07:29.241Z,39.90
2024-04-18T07:08:29.238Z,43.40
2024-04-18T07:09:29.256Z,44.00
2024-04-18T07:10:29.196Z,50.80
2024-04-18T07:11:29.245Z,49.10
2024-04-18T07:12:29.216Z,50.20
2024-04-18T07:13:29.217Z,40.90
2024-04-18T07:14:29.139Z,36.00
2024-04-18T07:15:29.174Z,43.00
2024-04-18T07:16:29.110Z,44.80
2024-04-18T07:17:29.181Z,41.30
2024-04-18T07:18:29.159Z,37.50
2024-04-18T07:19:29.103Z,49.90
2024-04-18T07:20:29.047Z,39.80
2024-04-18T07:21:29.095Z,43.20
2024-04-18T07:22:29.069Z,41.90
2024-04-18T07:23:29.020Z,38.50
2024-04-18T07:24:29.032Z,37.80
2024-04-18T07:25:29.019Z,43.80
2024-04-18T07:26:28.988Z,34.30
2024-04-18T07:27:29.056Z,33.90
2024-04-18T07:28:28.960Z,35.60
2024-04-18T07:29:28.974Z,35.40
2024-04-18T07:30:28.949Z,29.10
2024-04-18T07:31:28.935Z,30.90
2024-04-18T07:32:28.958Z,34.40
2024-04-18T07:33:28.983Z,33.40
2024-04-18T07:34:28.886Z,28.00
2024-04-18T07:35:28.940Z,31.20
2024-04-18T07:36:28.878Z,36.10
2024-04-18T07:37:32.358Z,33.80
2024-04-18T07:38:28.865Z,28.50
2024-04-18T07:39:28.841Z,29.80
2024-04-18T07:40:28.814Z,33.70
2024-04-18T07:41:28.796Z,34.80
2024-04-18T07:42:28.795Z,34.20
2024-04-18T07:43:28.778Z,29.10
2024-04-18T07:44:28.734Z,28.70
2024-04-18T07:45:28.830Z,38.20
2024-04-18T07:46:28.741Z,31.30
2024-04-18T07:47:28.757Z,33.70
2024-04-18T07:48:28.806Z,42.90
2024-04-18T07:49:28.696Z,39.80
2024-04-18T07:50:28.689Z,34.40
2024-04-18T07:51:28.656Z,36.20
2024-04-18T07:52:28.755Z,40.50
2024-04-18T07:53:28.623Z,33.40
2024-04-18T07:54:28.650Z,38.00
2024-04-18T07:55:28.643Z,33.60
2024-04-18T07:56:29.075Z,35.50
2024-04-18T07:57:28.974Z,43.20
2024-04-18T07:58:29.055Z,47.00
2024-04-18T07:59:29.095Z,44.20
2024-04-18T08:00:29.526Z,32.90
2024-04-18T08:01:29.838Z,34.40
2024-04-18T08:02:30.536Z,22.80
2024-04-18T08:03:30.247Z,22.60
2024-04-18T08:04:50.068Z,26.60
2024-04-18T08:05:32.565Z,30.90
2024-04-18T08:06:32.633Z,29.90
2024-04-18T08:07:31.132Z,23.30
2024-04-18T08:08:30.898Z,25.50
2024-04-18T08:09:31.528Z,27.80
2024-04-18T08:10:36.391Z,27.20
2024-04-18T08:12:04.002Z,29.20
2024-04-18T08:12:32.372Z,26.70
2024-04-18T08:13:33.110Z,25.90
2024-04-18T08:14:33.071Z,22.90
2024-04-18T08:16:29.365Z,21.60
2024-04-18T08:17:28.445Z,23.80
2024-04-18T08:18:28.330Z,26.00
2024-04-18T08:19:28.276Z,23.50
2024-04-18T08:20:28.274Z,19.10
2024-04-18T08:21:28.311Z,22.40
2024-04-18T08:22:28.253Z,23.60
2024-04-18T08:23:28.249Z,22.40
2024-04-18T08:24:28.293Z,25.10
2024-04-18T08:25:28.198Z,24.80
2024-04-18T08:26:28.199Z,19.80
2024-04-18T08:27:28.231Z,26.70
2024-04-18T08:28:28.170Z,20.80
2024-04-18T08:29:28.160Z,22.90
2024-04-18T08:30:28.168Z,25.30
2024-04-18T08:31:28.181Z,18.90
2024-04-18T08:32:28.129Z,20.60
2024-04-18T08:33:28.123Z,21.90
2024-04-18T08:34:28.467Z,18.90
2024-04-18T08:35:28.086Z,20.50
2024-04-18T08:36:28.142Z,13.90
2024-04-18T08:37:28.059Z,15.50
2024-04-18T08:38:28.028Z,14.70
2024-04-18T08:39:28.101Z,14.70
2024-04-18T08:40:28.025Z,15.40
2024-04-18T08:41:28.026Z,17.20
2024-04-18T08:42:28.043Z,15.40
2024-04-18T08:43:27.969Z,16.90
2024-04-18T08:44:27.958Z,15.20
2024-04-18T08:45:27.944Z,14.00
2024-04-18T08:46:27.948Z,21.00
2024-04-18T08:47:27.995Z,18.60
2024-04-18T08:48:28.211Z,11.90
2024-04-18T08:49:27.923Z,12.60
2024-04-18T08:50:27.906Z,16.10
2024-04-18T08:51:27.914Z,16.10
2024-04-18T08:52:28.345Z,18.80
2024-04-18T08:53:27.832Z,17.20
2024-04-18T08:54:27.877Z,15.50
2024-04-18T08:55:27.825Z,14.20
2024-04-18T08:56:27.806Z,18.20
2024-04-18T08:57:27.812Z,20.80
2024-04-18T08:58:27.772Z,13.70
2024-04-18T08:59:27.756Z,10.10
2024-04-18T09:00:27.797Z,14.10
2024-04-18T09:01:27.718Z,11.60
2024-04-18T09:02:27.760Z,17.80
2024-04-18T09:03:27.728Z,15.10
2024-04-18T09:04:27.754Z,18.80
2024-04-18T09:05:27.691Z,17.60
2024-04-18T09:06:27.696Z,13.90
2024-04-18T09:07:27.645Z,16.20
2024-04-18T09:08:27.635Z,16.80
2024-04-18T09:09:27.700Z,16.00
2024-04-18T09:10:27.616Z,13.20
2024-04-18T09:11:27.609Z,15.30
2024-04-18T09:12:27.606Z,12.20
2024-04-18T09:13:27.565Z,10.70
2024-04-18T09:14:27.582Z,11.80
2024-04-18T09:15:27.584Z,15.30
2024-04-18T09:17:37.412Z,13.60
2024-04-18T09:18:37.608Z,14.70
2024-04-18T09:19:37.291Z,14.20
2024-04-18T09:20:37.293Z,15.00
2024-04-18T09:21:37.349Z,15.40
2024-04-18T09:22:37.258Z,11.70
2024-04-18T09:23:37.248Z,12.40
2024-04-18T09:24:37.280Z,11.30
2024-04-18T09:25:39.555Z,13.00
2024-04-18T09:26:37.225Z,14.50
2024-04-18T09:27:37.231Z,14.40
2024-04-18T09:28:37.183Z,12.90
2024-04-18T09:29:37.174Z,15.70
2024-04-18T09:30:37.249Z,12.80
2024-04-18T09:31:42.399Z,15.00
2024-04-18T09:32:38.190Z,11.10
2024-04-18T09:33:37.207Z,11.30
2024-04-18T09:34:37.097Z,13.20
2024-04-18T09:35:37.237Z,12.00
2024-04-18T09:36:37.107Z,12.00
2024-04-18T09:37:37.066Z,9.60
2024-04-18T09:38:37.039Z,11.10
2024-04-18T09:39:37.072Z,12.80
2024-04-18T09:40:37.001Z,8.90
2024-04-18T09:41:37.006Z,7.40
2024-04-18T09:42:37.140Z,12.00
2024-04-18T09:43:37.035Z,9.60
2024-04-18T09:44:36.944Z,10.30
2024-04-18T09:45:37.005Z,8.90
2024-04-18T09:46:36.925Z,5.60
2024-04-18T09:47:36.935Z,12.80
2024-04-18T09:48:37.023Z,7.40
2024-04-18T09:49:36.922Z,7.70
2024-04-18T09:50:36.882Z,6.70
2024-04-18T09:51:36.935Z,7.10
2024-04-18T09:52:36.840Z,10.70
2024-04-18T09:53:36.833Z,6.90
2024-04-18T09:54:36.864Z,6.30
2024-04-18T09:55:36.817Z,7.80
2024-04-18T09:56:36.784Z,6.30
2024-04-18T09:57:36.828Z,6.30
2024-04-18T09:58:36.780Z,6.20
2024-04-18T09:59:36.748Z,7.90
2024-04-18T10:00:36.790Z,10.90
2024-04-18T10:01:36.780Z,6.60
2024-04-18T10:02:36.735Z,5.50
2024-04-18T10:03:36.745Z,8.70
2024-04-18T10:04:36.691Z,4.80
2024-04-18T10:05:36.675Z,4.30
2024-04-18T10:06:36.656Z,7.00
2024-04-18T10:07:36.656Z,5.40
2024-04-18T10:08:36.623Z,4.50
2024-04-18T10:09:36.687Z,3.80
2024-04-18T10:10:36.613Z,6.10
2024-04-18T10:11:36.670Z,7.20
2024-04-18T10:12:36.588Z,4.70
2024-04-18T10:13:36.565Z,4.30
2024-04-18T10:14:36.559Z,4.50
2024-04-18T10:15:36.566Z,5.50
2024-04-18T10:16:36.561Z,5.30
2024-04-18T10:17:36.564Z,3.40
2024-04-18T10:18:36.829Z,2.40
2024-04-18T10:19:36.527Z,5.50
2024-04-18T10:20:36.449Z,3.80
2024-04-18T10:21:43.233Z,7.30
2024-04-18T10:22:45.695Z,4.00
2024-04-18T10:23:37.436Z,5.10
2024-04-18T10:24:36.599Z,2.70
2024-04-18T10:25:36.410Z,6.00
2024-04-18T10:26:36.394Z,6.80
2024-04-18T10:27:36.408Z,5.60
2024-04-18T10:28:36.355Z,3.10
2024-04-18T10:29:36.329Z,3.40
2024-04-18T10:30:36.459Z,5.50
2024-04-18T10:31:36.317Z,4.30
2024-04-18T10:32:36.340Z,4.60
2024-04-18T10:33:36.370Z,4.30
2024-04-18T10:34:36.270Z,2.80
2024-04-18T10:35:36.264Z,3.70
2024-04-18T10:36:36.403Z,5.00
2024-04-18T10:37:36.254Z,4.00
2024-04-18T10:38:36.231Z,2.90
2024-04-18T10:39:36.317Z,5.60
2024-04-18T10:40:36.194Z,2.60
2024-04-18T10:41:36.175Z,4.00
2024-04-18T10:42:36.366Z,3.60
2024-04-18T10:43:36.154Z,3.50
2024-04-18T10:44:36.175Z,4.50
2024-04-18T10:45:36.167Z,4.40
2024-04-18T10:46:36.118Z,3.10
2024-04-18T10:47:36.196Z,5.40
2024-04-18T10:48:36.264Z,5.60
2024-04-18T10:49:36.182Z,4.00
2024-04-18T10:50:36.174Z,5.00
2024-04-18T10:51:36.144Z,2.90
2024-04-18T10:52:36.036Z,4.90
2024-04-18T10:53:36.010Z,2.70
2024-04-18T10:54:36.115Z,7.20
2024-04-18T10:55:35.977Z,2.20
2024-04-18T10:56:35.977Z,3.00
2024-04-18T10:57:36.034Z,6.30
2024-04-18T10:58:35.942Z,4.10
2024-04-18T10:59:35.987Z,2.30
2024-04-18T11:00:35.997Z,7.70
2024-04-18T11:01:36.594Z,3.40
2024-04-18T11:02:35.952Z,3.00
2024-04-18T11:03:36.214Z,4.80
2024-04-18T11:04:35.954Z,3.60
2024-04-18T11:05:35.928Z,2.40
2024-04-18T11:06:35.969Z,4.00
2024-04-18T11:07:35.831Z,2.20
2024-04-18T11:08:35.859Z,3.40
2024-04-18T11:09:35.861Z,4.40
2024-04-18T11:10:35.793Z,2.70
2024-04-18T11:11:35.783Z,3.30
2024-04-18T11:12:35.837Z,4.10
2024-04-18T11:13:35.770Z,3.40
2024-04-18T11:14:35.755Z,2.50
2024-04-18T11:15:35.771Z,4.60
2024-04-18T11:16:35.705Z,4.50
2024-04-18T11:17:35.737Z,2.60
2024-04-18T11:18:35.726Z,3.60
2024-04-18T11:19:35.670Z,2.40
2024-04-18T11:20:35.643Z,4.50
2024-04-18T11:21:35.670Z,2.80
2024-04-18T11:22:35.614Z,3.40
2024-04-18T11:23:44.121Z,2.50
2024-04-18T11:24:36.703Z,4.70
2024-04-18T11:25:35.575Z,3.10
2024-04-18T11:26:35.564Z,2.50
2024-04-18T11:27:35.668Z,3.90
2024-04-18T11:28:35.541Z,4.30
2024-04-18T11:29:35.542Z,3.30
2024-04-18T11:30:35.557Z,2.50
2024-04-18T11:31:35.568Z,3.30
2024-04-18T11:32:35.503Z,3.50
2024-04-18T11:33:35.537Z,3.30
2024-04-18T11:34:35.459Z,6.20
2024-04-18T11:35:35.438Z,2.80
2024-04-18T11:36:35.467Z,2.80
2024-04-18T11:37:35.408Z,1.80
2024-04-18T11:38:35.404Z,4.30
2024-04-18T11:39:35.456Z,4.50
2024-04-18T11:40:35.365Z,2.50
2024-04-18T11:41:35.378Z,4.00
2024-04-18T11:42:35.405Z,2.80
2024-04-18T11:43:35.352Z,2.00
2024-04-18T11:44:35.316Z,2.40
2024-04-18T11:45:35.338Z,2.80
2024-04-18T11:46:35.302Z,2.70
2024-04-18T11:47:35.337Z,4.10
2024-04-18T11:48:35.446Z,2.80
2024-04-18T11:49:35.259Z,2.00
2024-04-18T11:50:35.229Z,1.60
2024-04-18T11:51:35.279Z,4.60
2024-04-18T11:52:35.229Z,3.40
2024-04-18T11:53:35.197Z,1.70
2024-04-18T11:54:35.192Z,2.20
2024-04-18T11:55:35.173Z,1.50
2024-04-18T11:56:35.170Z,2.80
2024-04-18T11:57:35.210Z,3.50
2024-04-18T11:58:35.133Z,2.00
2024-04-18T11:59:35.118Z,2.40
2024-04-18T12:00:35.220Z,1.50
2024-04-18T12:01:35.121Z,3.30
2024-04-18T12:02:35.075Z,3.30
2024-04-18T12:03:35.104Z,3.10
2024-04-18T12:04:35.069Z,3.70
2024-04-18T12:05:35.037Z,1.90
2024-04-18T12:06:35.145Z,5.70
2024-04-18T12:07:35.020Z,4.00
2024-04-18T12:08:35.015Z,1.60
2024-04-18T12:09:35.113Z,3.10
2024-04-18T12:10:34.980Z,3.20
2024-04-18T12:11:35.022Z,2.90
2024-04-18T12:12:34.982Z,4.90
2024-04-18T12:13:35.016Z,4.90
2024-04-18T12:14:34.911Z,2.50
2024-04-18T12:15:35.014Z,1.80
2024-04-18T12:16:34.921Z,2.00
2024-04-18T12:17:34.902Z,2.00
2024-04-18T12:18:34.900Z,1.60
2024-04-18T12:19:34.838Z,1.80
2024-04-18T12:20:34.836Z,2.60
2024-04-18T12:21:34.871Z,1.60
2024-04-18T12:22:34.862Z,1.80
2024-04-18T12:23:34.778Z,2.10
2024-04-18T12:24:34.818Z,2.90
2024-04-18T12:25:34.841Z,3.80
2024-04-18T12:26:34.744Z,3.00
2024-04-18T12:27:34.765Z,4.90
2024-04-18T12:28:34.710Z,4.10
2024-04-18T12:29:34.741Z,2.80
2024-04-18T12:30:34.880Z,3.50
2024-04-18T12:31:34.699Z,1.70
2024-04-18T12:32:34.724Z,4.50
2024-04-18T12:33:34.717Z,4.00
2024-04-18T12:34:34.653Z,2.60
2024-04-18T12:35:34.632Z,2.60
2024-04-18T12:36:34.641Z,3.60
2024-04-18T12:37:34.602Z,2.70
2024-04-18T12:38:34.628Z,3.60
2024-04-18T12:39:34.627Z,3.60
2024-04-18T12:40:34.576Z,2.50
2024-04-18T12:41:34.553Z,2.20
2024-04-18T12:42:34.577Z,3.50
2024-04-18T12:43:34.557Z,3.10
2024-04-18T12:44:34.492Z,2.80
2024-04-18T12:45:35.910Z,3.00
2024-04-18T12:46:34.559Z,3.80
2024-04-18T12:47:34.555Z,3.50
2024-04-18T12:48:35.647Z,3.10